»·PEaware :: N6713B KTRM-KKNB

N6713B :: KTRM-KKNB

FLIGHT INFORMATION

Flight Status: Arrived
Operator: Privately registered:
United States
More flights under this callsign
Pilot: Anonymous 14813 (14813)
Aircraft: DEHAVILLAND DASH 8 400
(DH8D)
More flights by this aircraft type
Origin: KTRM Desert Resorts Regl
United States
Destination: KKNB Kanab Mun
United States
More flights between these airports :: More routes between these airports
Route: MECCA1 TNP V208 GCN V257 KACIR
File this flight plan on PilotEdge
Remarks:
Altitude:
(Current/Filed)
25,000ft
Speed:
(Current/Filed)
250kts
Departed: 12-Aug-17 09:39 PM
Arrived: 12-Aug-17 10:36 PM
Distance/Time
Traveled:
268nm/0:57
Distance/Time
To Go:
Arrived

Flight Plot

Page will automatically refresh every two minutes.

Flight plan parsing failed; only flown route is shown


Map Options




Map Legend


Flown Route
Filed Route
Departure Airport
Arrival Airport
Navaid (VOR, NDB)
Fix

Horizontal Profiles

Position Reports

Time Latitude Longitude Heading Altitude Ground
Speed
12-Aug-17 21:28 33.634990 -116.160076 358 -106ft 0kts
12-Aug-17 21:29 33.634990 -116.160076 358 -106ft 0kts
12-Aug-17 21:30 33.634990 -116.160076 358 -106ft 0kts
12-Aug-17 21:31 33.634990 -116.160076 358 -106ft 0kts
12-Aug-17 21:32 33.634990 -116.160076 358 -106ft 0kts
12-Aug-17 21:33 33.634990 -116.160076 358 -106ft 0kts
12-Aug-17 21:34 33.634990 -116.160076 358 -106ft 0kts
12-Aug-17 21:35 33.634990 -116.160076 358 -106ft 0kts
12-Aug-17 21:36 33.634990 -116.160076 358 -106ft 0kts
12-Aug-17 21:37 33.634990 -116.160076 358 -106ft 0kts
12-Aug-17 21:38 33.634990 -116.160076 358 -106ft 0kts
12-Aug-17 21:39 33.634755 -116.160191 149 -106ft 8kts
12-Aug-17 21:40 33.634119 -116.165803 271 -106ft 32kts
12-Aug-17 21:41 33.632656 -116.170863 178 -106ft 14kts
12-Aug-17 21:42 33.629937 -116.170673 140 -106ft 0kts
12-Aug-17 21:43 33.626118 -116.166065 134 -105ft 99kts
12-Aug-17 21:44 33.595924 -116.138493 145 2287ft 155kts
12-Aug-17 21:45 33.553540 -116.105343 150 4815ft 199kts
12-Aug-17 21:46 33.525674 -116.052698 64 7505ft 223kts
12-Aug-17 21:47 33.575153 -116.053562 300 9866ft 215kts
12-Aug-17 21:48 33.605989 -116.116590 303 12038ft 223kts
12-Aug-17 21:49 33.663905 -116.122966 21 14100ft 233kts
12-Aug-17 21:50 33.722312 -116.084838 30 15986ft 243kts
12-Aug-17 21:51 33.779839 -116.038620 32 17431ft 263kts
12-Aug-17 21:52 33.846206 -115.985060 32 17534ft 306kts
12-Aug-17 21:52 33.906799 -115.936194 33 17567ft 323kts
12-Aug-17 21:53 33.982594 -115.874917 33 17599ft 333kts
12-Aug-17 21:55 34.073130 -115.801595 33 17627ft 338kts
12-Aug-17 21:56 34.138325 -115.721632 59 17638ft 342kts
12-Aug-17 21:56 34.179171 -115.639075 58 17635ft 344kts
12-Aug-17 21:57 34.229334 -115.540750 58 17627ft 345kts
12-Aug-17 21:58 34.279676 -115.442172 58 17618ft 345kts
12-Aug-17 21:59 34.343515 -115.316503 58 17631ft 346kts
12-Aug-17 22:00 34.443825 -115.118363 58 17606ft 346kts
12-Aug-17 22:01 34.543933 -114.919396 58 17586ft 346kts
12-Aug-17 22:02 34.644780 -114.717845 58 17332ft 347kts
12-Aug-17 22:03 34.743723 -114.518985 57 17494ft 342kts
12-Aug-17 22:04 34.876892 -114.355793 39 17518ft 342kts
12-Aug-17 22:05 35.019531 -114.202339 39 17577ft 343kts
12-Aug-17 22:06 35.162051 -114.048472 39 17689ft 343kts
12-Aug-17 22:07 35.250541 -113.952756 39 17735ft 345kts
12-Aug-17 22:08 35.322247 -113.874925 39 17740ft 346kts
12-Aug-17 22:09 35.394093 -113.796689 40 17741ft 346kts
12-Aug-17 22:10 35.466301 -113.717980 39 17739ft 347kts
12-Aug-17 22:11 35.538237 -113.639271 39 17754ft 347kts
12-Aug-17 22:12 35.610143 -113.560015 42 17772ft 347kts
12-Aug-17 22:13 35.648328 -113.451591 73 17795ft 351kts
12-Aug-17 22:14 35.675636 -113.336390 72 17837ft 351kts
12-Aug-17 22:15 35.718944 -113.159498 72 17876ft 352kts
12-Aug-17 22:16 35.774637 -112.929387 73 17934ft 351kts
12-Aug-17 22:17 35.830283 -112.697434 73 17965ft 353kts
12-Aug-17 22:18 35.870735 -112.527413 73 17983ft 353kts
12-Aug-17 22:19 35.898170 -112.411429 73 17992ft 353kts
12-Aug-17 22:20 35.925587 -112.294795 73 18002ft 354kts
12-Aug-17 22:21 35.962040 -112.183141 50 18004ft 354kts
12-Aug-17 22:22 36.050191 -112.152461 351 18007ft 342kts
12-Aug-17 22:23 36.145063 -112.162743 352 18000ft 343kts
12-Aug-17 22:24 36.240468 -112.171107 352 17935ft 353kts
12-Aug-17 22:25 36.336546 -112.179671 352 16722ft 336kts
12-Aug-17 22:26 36.427061 -112.187870 353 15608ft 317kts
12-Aug-17 22:27 36.512637 -112.195725 353 14562ft 305kts
12-Aug-17 22:28 36.582707 -112.240764 308 13635ft 290kts
12-Aug-17 22:29 36.632966 -112.321353 305 12262ft 296kts
12-Aug-17 22:30 36.682193 -112.401189 298 11151ft 288kts
12-Aug-17 22:31 36.720104 -112.484167 299 9948ft 263kts
12-Aug-17 22:32 36.754748 -112.559839 298 8779ft 226kts
12-Aug-17 22:33 36.789043 -112.614785 336 7859ft 197kts
12-Aug-17 22:34 36.843777 -112.607854 15 6871ft 202kts
12-Aug-17 22:35 36.892463 -112.587820 17 6151ft 163kts
12-Aug-17 22:36 36.931069 -112.569404 19 6203ft 139kts
12-Aug-17 22:37 36.966172 -112.552852 20 5583ft 125kts
12-Aug-17 22:38 37.000084 -112.536408 20 4924ft 125kts
12-Aug-17 22:39 37.010379 -112.530526 68 4841ft 8kts
12-Aug-17 22:40 37.010408 -112.530109 105 4841ft 0kts
12-Aug-17 22:41 37.010408 -112.530109 105 4841ft 0kts
12-Aug-17 22:42 36.987744 -112.542274 19 5132ft 133kts

Navigation Log

Ident Type
Flight plan parsing failed, navigation log unavailable